Time;durP1;ratioP1;P1;durP2;ratioP2;P2;SDS_P1;SDS_P2;PMS_P1;PMS_P2;Temp;Humidity;BMP_temperature;BMP_pressure;BME280_temperature;BME280_humidity;BME280_pressure;Samples;Min_cycle;Max_cycle;Signal;HPM_P1;HPM_P2
2023/04/18 00:00:35;;;;;;;18.25;10.80;;;;;;;7.45;86.43;102500.03;5002179;28;20031;-84
2023/04/18 00:03:01;;;;;;;22.30;12.05;;;;;;;7.44;86.33;102498.28;4987164;28;20046;-84
2023/04/18 00:05:26;;;;;;;19.55;10.95;;;;;;;7.37;86.96;102496.72;4990757;28;20329;-84
2023/04/18 00:07:52;;;;;;;21.52;12.13;;;;;;;7.32;86.61;102495.94;4992232;28;20065;-83
2023/04/18 00:10:17;;;;;;;24.63;12.20;;;;;;;7.32;86.99;102496.88;4992245;28;20544;-83
2023/04/18 00:12:43;;;;;;;21.25;11.25;;;;;;;7.18;87.19;102485.59;5005830;28;20034;-84
2023/04/18 00:15:10;;;;;;;22.15;12.07;;;;;;;7.22;87.90;102498.06;4973684;28;20367;-84
2023/04/18 00:17:38;;;;;;;22.45;11.45;;;;;;;7.23;88.12;102501.66;4990239;28;20112;-84
2023/04/18 00:20:06;;;;;;;19.08;11.32;;;;;;;7.13;88.42;102488.44;4989993;28;20046;-84
2023/04/18 00:22:32;;;;;;;20.85;12.43;;;;;;;7.13;88.33;102488.44;4990994;28;20034;-83
2023/04/18 00:24:58;;;;;;;21.65;12.60;;;;;;;7.14;88.42;102486.63;4986017;28;20152;-84
2023/04/18 00:27:24;;;;;;;19.75;12.25;;;;;;;7.12;88.21;102494.78;4992106;28;20046;-83
2023/04/18 00:29:49;;;;;;;18.88;11.93;;;;;;;7.05;88.23;102482.38;4974630;28;20026;-83
2023/04/18 00:32:16;;;;;;;19.90;12.13;;;;;;;7.04;88.08;102487.81;4991771;28;20133;-83
2023/04/18 00:34:41;;;;;;;27.10;12.85;;;;;;;7.04;88.40;102501.34;4994030;28;20014;-84
2023/04/18 00:37:07;;;;;;;20.05;11.25;;;;;;;6.99;88.06;102498.78;4993871;28;20096;-84
2023/04/18 00:39:35;;;;;;;22.15;11.30;;;;;;;6.94;88.22;102492.63;5008805;28;20290;-84
2023/04/18 00:42:04;;;;;;;20.17;12.13;;;;;;;6.94;87.70;102495.34;4994041;28;20092;-83
2023/04/18 00:44:30;;;;;;;20.45;11.82;;;;;;;6.96;86.65;102498.91;5003273;28;20046;-84
2023/04/18 00:46:56;;;;;;;19.83;10.75;;;;;;;6.88;86.19;102491.00;4973371;28;20039;-84
2023/04/18 00:49:22;;;;;;;20.73;12.60;;;;;;;6.94;85.64;102491.75;4974075;28;20045;-83
2023/04/18 00:51:48;;;;;;;20.10;11.80;;;;;;;6.87;85.29;102489.25;4990030;28;20030;-84
2023/04/18 00:54:17;;;;;;;18.13;11.65;;;;;;;6.90;84.17;102490.94;4976298;28;20389;-83
2023/04/18 00:56:43;;;;;;;23.15;11.65;;;;;;;6.89;83.32;102487.38;5009998;28;20050;-84
2023/04/18 00:59:09;;;;;;;17.27;11.27;;;;;;;6.95;81.48;102499.84;4992503;28;20089;-84
2023/04/18 01:01:36;;;;;;;17.92;10.68;;;;;;;6.94;81.46;102489.94;4989602;28;20030;-84
2023/04/18 01:04:01;;;;;;;18.70;10.27;;;;;;;7.00;80.50;102483.47;4987100;28;20566;-84
2023/04/18 01:06:28;;;;;;;14.75;9.68;;;;;;;7.08;78.77;102489.50;4987330;28;20034;-84
2023/04/18 01:08:55;;;;;;;20.75;11.02;;;;;;;7.06;79.72;102494.09;4987973;28;20483;-84
2023/04/18 01:11:20;;;;;;;20.77;11.07;;;;;;;6.99;79.75;102487.97;4989680;28;20065;-84
2023/04/18 01:14:03;;;;;;;16.85;10.18;;;;;;;6.98;80.21;102494.31;4972617;28;20419;-84
2023/04/18 01:16:31;;;;;;;16.20;10.73;;;;;;;6.92;79.81;102499.94;4971231;28;20049;-83
2023/04/18 01:18:57;;;;;;;20.65;10.98;;;;;;;6.82;79.58;102491.22;4990853;28;20038;-84
2023/04/18 01:21:23;;;;;;;18.90;10.10;;;;;;;6.82;79.49;102499.31;4988360;28;20034;-84
2023/04/18 01:23:50;;;;;;;15.93;10.18;;;;;;;6.73;80.35;102487.91;4989856;28;20089;-84
2023/04/18 01:26:15;;;;;;;20.88;11.63;;;;;;;6.73;80.68;102496.91;4981431;28;20028;-84
2023/04/18 01:28:40;;;;;;;18.90;9.48;;;;;;;6.65;80.95;102480.88;4999542;28;20547;-84
2023/04/18 01:31:06;;;;;;;18.42;11.27;;;;;;;6.60;81.07;102480.13;5006270;28;20076;-83
2023/04/18 01:33:35;;;;;;;18.83;10.43;;;;;;;6.61;81.12;102492.72;5009536;28;20044;-84
2023/04/18 01:36:00;;;;;;;16.95;11.02;;;;;;;6.61;80.74;102483.72;4991528;28;20038;-84
2023/04/18 01:38:29;;;;;;;17.42;10.07;;;;;;;6.56;81.28;102482.97;5010592;28;20452;-84
2023/04/18 01:40:54;;;;;;;16.50;10.00;;;;;;;6.53;80.57;102473.16;5007322;28;20080;-83
2023/04/18 01:43:20;;;;;;;16.30;10.68;;;;;;;6.51;81.13;102476.81;4999287;28;20042;-84
2023/04/18 01:45:46;;;;;;;19.58;11.45;;;;;;;6.51;80.38;102475.00;4977556;28;20172;-83
2023/04/18 01:48:11;;;;;;;18.20;11.55;;;;;;;6.41;80.86;102467.22;4973349;28;20124;-83
2023/04/18 01:50:40;;;;;;;20.60;9.43;;;;;;;6.40;80.88;102463.63;4989948;28;20506;-84
2023/04/18 01:53:05;;;;;;;15.45;10.32;;;;;;;6.33;81.38;102478.22;4989018;28;20049;-83
2023/04/18 01:55:30;;;;;;;17.23;10.55;;;;;;;6.28;81.04;102466.66;4989440;28;20454;-81
2023/04/18 01:57:56;;;;;;;18.65;10.57;;;;;;;6.21;81.51;102456.97;4972645;28;20133;-84
2023/04/18 02:00:21;;;;;;;17.55;10.77;;;;;;;6.11;81.38;102456.34;4986874;28;20402;-84
2023/04/18 02:02:49;;;;;;;19.77;10.98;;;;;;;6.10;81.72;102462.66;4985919;28;20046;-84
2023/04/18 02:05:14;;;;;;;20.30;11.02;;;;;;;6.05;81.88;102468.19;4969542;28;20509;-83
2023/04/18 02:07:41;;;;;;;16.63;10.73;;;;;;;6.03;81.96;102466.47;4970264;28;20126;-84
2023/04/18 02:10:08;;;;;;;17.85;11.30;;;;;;;5.97;82.31;102464.84;4984364;28;20546;-84
2023/04/18 02:12:33;;;;;;;17.35;10.73;;;;;;;5.96;82.45;102467.56;4972074;28;20117;-84
2023/04/18 02:14:59;;;;;;;20.63;11.90;;;;;;;5.86;82.43;102462.38;4971549;28;20038;-84
2023/04/18 02:17:24;;;;;;;17.35;10.77;;;;;;;5.84;82.92;102460.66;4987583;28;20041;-84
2023/04/18 02:19:53;;;;;;;18.63;11.07;;;;;;;5.81;83.04;102475.13;5010249;28;20026;-84
2023/04/18 02:22:18;;;;;;;19.88;11.93;;;;;;;5.74;82.79;102473.53;5001589;28;20448;-84
2023/04/18 02:24:44;;;;;;;19.35;11.20;;;;;;;5.72;83.19;102460.97;4988216;28;20041;-84
2023/04/18 02:27:10;;;;;;;17.98;11.50;;;;;;;5.68;82.97;102468.25;4986151;28;20441;-83
2023/04/18 02:29:35;;;;;;;17.02;11.10;;;;;;;5.63;82.91;102464.78;4980282;28;20044;-84
2023/04/18 02:32:02;;;;;;;18.58;11.98;;;;;;;5.58;82.80;102459.50;4988032;28;20026;-84
2023/04/18 02:34:28;;;;;;;21.90;11.27;;;;;;;5.56;83.48;102458.69;4988663;28;20061;-83
2023/04/18 02:36:53;;;;;;;17.02;10.73;;;;;;;5.53;82.92;102456.03;4973128;28;20470;-84
2023/04/18 02:39:19;;;;;;;19.38;11.20;;;;;;;5.45;82.71;102446.38;4972904;28;20114;-84
2023/04/18 02:41:44;;;;;;;18.35;10.70;;;;;;;5.44;83.06;102463.50;4988221;28;20110;-83
2023/04/18 02:44:10;;;;;;;16.73;10.93;;;;;;;5.38;83.21;102457.31;4975840;28;20457;-84
2023/04/18 02:46:37;;;;;;;16.73;10.23;;;;;;;5.32;83.03;102444.00;4990906;28;20034;-84
2023/04/18 02:49:06;;;;;;;17.55;10.75;;;;;;;5.33;83.31;102458.38;4992583;28;20034;-84
2023/04/18 02:51:31;;;;;;;20.23;10.63;;;;;;;5.27;83.19;102451.31;4975128;28;20137;-83
2023/04/18 02:53:58;;;;;;;19.13;10.70;;;;;;;5.26;83.26;102445.94;4971940;28;20058;-84
2023/04/18 02:56:27;;;;;;;17.83;9.68;;;;;;;5.25;82.87;102457.66;4987476;28;20517;-84
2023/04/18 02:59:13;;;;;;;18.50;11.88;;;;;;;5.23;82.98;102462.22;5001301;28;20069;-82
2023/04/18 03:02:08;;;;;;;17.98;10.73;;;;;;;5.23;82.62;102463.09;4967392;28;20151;-84
2023/04/18 03:04:36;;;;;;;18.23;10.93;;;;;;;5.19;82.58;102453.31;4988225;28;20041;-83
2023/04/18 03:07:05;;;;;;;20.25;10.63;;;;;;;5.15;83.02;102456.13;4972167;28;20042;-83
2023/04/18 03:09:34;;;;;;;16.67;10.68;;;;;;;5.11;83.00;102455.31;4968835;28;20031;-84
2023/04/18 03:12:05;;;;;;;19.08;11.57;;;;;;;5.06;83.09;102455.41;4968838;28;20491;-84
2023/04/18 03:14:31;;;;;;;19.05;10.50;;;;;;;5.04;83.12;102459.09;4965651;28;20066;-84
2023/04/18 03:16:57;;;;;;;18.98;10.60;;;;;;;4.91;83.18;102449.50;4982926;28;20043;-83
2023/04/18 03:19:28;;;;;;;23.40;11.45;;;;;;;4.93;82.54;102459.31;4992088;28;20037;-84
2023/04/18 03:21:54;;;;;;;21.67;10.93;;;;;;;4.93;83.33;102462.00;4982324;28;20509;-84
2023/04/18 03:24:20;;;;;;;19.77;10.98;;;;;;;4.81;82.80;102448.81;4987621;28;20490;-83
2023/04/18 03:26:49;;;;;;;17.90;10.50;;;;;;;4.81;83.49;102451.53;5001066;28;20030;-83
2023/04/18 03:29:16;;;;;;;18.33;11.18;;;;;;;4.78;83.43;102455.16;4988704;28;20038;-84
2023/04/18 03:31:44;;;;;;;18.67;11.25;;;;;;;4.75;83.27;102459.72;4996727;28;20033;-83
2023/04/18 03:34:09;;;;;;;16.02;10.40;;;;;;;4.70;83.65;102451.75;5008791;28;20389;-84
2023/04/18 03:36:35;;;;;;;18.75;10.95;;;;;;;4.67;83.37;102456.34;5007035;28;20033;-83
2023/04/18 03:39:00;;;;;;;20.80;11.00;;;;;;;4.60;83.66;102467.22;5008761;28;20192;-83
2023/04/18 03:41:27;;;;;;;20.80;10.98;;;;;;;4.61;83.57;102465.41;5009653;28;20088;-83
2023/04/18 03:43:54;;;;;;;17.58;10.98;;;;;;;4.57;83.86;102461.03;4980204;28;20034;-83
2023/04/18 03:46:20;;;;;;;19.25;10.55;;;;;;;4.51;83.97;102453.06;4980243;28;20464;-83
2023/04/18 03:48:47;;;;;;;16.05;9.93;;;;;;;4.50;83.85;102464.78;5011550;28;20112;-83
2023/04/18 03:51:14;;;;;;;19.45;10.77;;;;;;;4.49;84.48;102465.69;5010806;28;20037;-83
2023/04/18 03:53:40;;;;;;;21.42;11.20;;;;;;;4.40;84.44;102461.38;5009774;28;20041;-84
2023/04/18 03:56:05;;;;;;;20.27;11.20;;;;;;;4.40;84.04;102466.78;4990548;28;20417;-84
2023/04/18 03:58:44;;;;;;;14.73;10.35;;;;;;;4.45;84.55;102464.88;4976038;28;20034;-83
2023/04/18 04:01:09;;;;;;;20.38;11.48;;;;;;;4.44;84.28;102471.19;4978961;28;20507;-83
2023/04/18 04:03:35;;;;;;;20.10;11.43;;;;;;;4.40;84.46;102468.59;4980226;28;20057;-83
2023/04/18 04:06:01;;;;;;;14.43;10.02;;;;;;;4.39;84.45;102466.81;4975123;28;20029;-84
2023/04/18 04:08:26;;;;;;;21.30;10.73;;;;;;;4.34;84.35;102450.75;5007952;28;20105;-83
2023/04/18 04:10:52;;;;;;;17.00;10.60;;;;;;;4.34;84.59;102465.09;4974405;28;20081;-84
2023/04/18 04:13:17;;;;;;;20.73;11.85;;;;;;;4.34;84.75;102459.72;4998398;28;20072;-83
2023/04/18 04:15:43;;;;;;;15.40;10.05;;;;;;;4.33;84.44;102462.41;5005594;28;20442;-83
2023/04/18 04:18:09;;;;;;;18.35;10.95;;;;;;;4.32;84.61;102471.41;4990992;28;20049;-84
2023/04/18 04:20:38;;;;;;;18.52;11.35;;;;;;;4.32;84.75;102466.03;4975386;28;20549;-83
2023/04/18 04:23:11;;;;;;;16.40;10.82;;;;;;;4.29;84.38;102466.09;4991433;28;20046;-84
2023/04/18 04:25:38;;;;;;;18.15;9.88;;;;;;;4.21;84.63;102460.00;4974647;28;20061;-83
2023/04/18 04:28:12;;;;;;;;;;;;;;;4.30;84.00;102471.47;4982730;28;20488;-84
2023/04/18 04:30:51;;;;;;;14.75;9.38;;;;;;;4.23;84.66;102477.88;4988733;28;19918;-83
2023/04/18 04:33:18;;;;;;;16.38;10.30;;;;;;;4.18;84.60;102462.72;4990875;28;20129;-83
2023/04/18 04:35:45;;;;;;;16.48;10.07;;;;;;;4.15;85.26;102471.78;4974952;28;20072;-84
2023/04/18 04:38:14;;;;;;;20.77;10.18;;;;;;;4.13;85.00;102478.09;4974887;28;20038;-84
2023/04/18 04:40:45;;;;;;;18.95;11.07;;;;;;;4.12;84.92;102479.03;5008365;28;20120;-83
2023/04/18 04:43:14;;;;;;;15.55;10.07;;;;;;;4.07;85.34;102473.72;4986553;28;20394;-83
2023/04/18 04:45:41;;;;;;;15.15;10.18;;;;;;;4.08;85.59;102481.75;4987134;28;20125;-83
2023/04/18 04:48:07;;;;;;;18.73;10.68;;;;;;;4.05;85.58;102476.44;4991727;28;20113;-83
2023/04/18 04:50:36;;;;;;;18.98;10.52;;;;;;;4.07;85.65;102487.19;4990042;28;20081;-83
2023/04/18 04:53:02;;;;;;;15.55;11.25;;;;;;;4.04;85.44;102471.97;4975053;28;20030;-84
2023/04/18 04:55:28;;;;;;;17.63;9.98;;;;;;;4.09;85.38;102483.53;4993147;28;20550;-83
2023/04/18 04:57:54;;;;;;;18.40;11.23;;;;;;;4.14;85.30;102487.94;4990301;28;20046;-83
2023/04/18 05:00:36;;;;;;;17.55;10.02;;;;;;;4.11;85.05;102477.25;4976577;28;20041;-84
2023/04/18 05:03:02;;;;;;;15.68;9.77;;;;;;;4.11;84.55;102477.25;4973552;28;20268;-84
2023/04/18 05:05:28;;;;;;;14.40;8.95;;;;;;;4.14;84.53;102487.94;5000456;28;20030;-83
2023/04/18 05:07:54;;;;;;;17.10;10.00;;;;;;;4.10;84.98;102484.41;4991941;28;20469;-83
2023/04/18 05:10:19;;;;;;;17.23;10.18;;;;;;;4.11;84.55;102479.94;5010032;28;20128;-83
2023/04/18 05:12:45;;;;;;;16.52;9.85;;;;;;;4.12;84.74;102485.28;4977178;28;20026;-84
2023/04/18 05:15:11;;;;;;;16.10;10.15;;;;;;;4.17;85.29;102488.78;4972905;28;20050;-83
2023/04/18 05:17:36;;;;;;;18.45;10.40;;;;;;;4.20;84.81;102485.16;4988864;28;20042;-83
2023/04/18 05:20:03;;;;;;;15.63;9.43;;;;;;;4.25;84.68;102488.66;4973564;28;20504;-84
2023/04/18 05:22:28;;;;;;;16.77;10.25;;;;;;;4.36;83.86;102489.31;4990046;28;20481;-82
2023/04/18 05:24:53;;;;;;;17.17;9.50;;;;;;;4.47;83.75;102489.06;4973678;28;20080;-83
2023/04/18 05:27:19;;;;;;;17.10;9.77;;;;;;;4.59;83.20;102488.84;4972876;28;20038;-82
2023/04/18 05:29:46;;;;;;;16.42;10.07;;;;;;;4.68;83.81;102495.84;4971196;28;20441;-82
2023/04/18 05:32:11;;;;;;;14.95;8.82;;;;;;;4.71;83.53;102490.38;4983354;28;20117;-84
2023/04/18 05:34:36;;;;;;;17.65;9.73;;;;;;;4.71;82.68;102488.59;4989385;28;20475;-83
2023/04/18 05:37:02;;;;;;;16.52;9.10;;;;;;;4.73;83.37;102500.22;4989282;28;20802;-83
2023/04/18 05:39:27;;;;;;;16.13;7.90;;;;;;;4.73;82.54;102502.00;4972738;28;20066;-83
2023/04/18 05:41:52;;;;;;;12.68;9.38;;;;;;;4.79;82.52;102502.75;4989080;28;20042;-83
2023/04/18 05:44:18;;;;;;;18.38;9.38;;;;;;;4.79;83.17;102502.75;4987813;28;20030;-83
2023/04/18 05:46:44;;;;;;;15.32;10.05;;;;;;;4.83;83.29;102499.06;4975960;28;20034;-84
2023/04/18 05:49:11;;;;;;;15.15;9.85;;;;;;;4.95;83.01;102507.84;4990243;28;20057;-83
2023/04/18 05:51:38;;;;;;;15.85;8.93;;;;;;;5.00;82.75;102514.91;4990450;28;20038;-83
2023/04/18 05:54:03;;;;;;;15.48;10.20;;;;;;;5.06;82.58;102512.06;4972343;28;20102;-84
2023/04/18 05:56:29;;;;;;;14.20;8.98;;;;;;;5.13;83.28;102515.50;4976703;28;20070;-83
2023/04/18 05:58:55;;;;;;;15.00;9.35;;;;;;;5.19;83.44;102523.47;4986771;28;20045;-83
2023/04/18 06:01:20;;;;;;;14.57;9.70;;;;;;;5.22;82.88;102518.00;4977431;28;20083;-82
2023/04/18 06:03:46;;;;;;;16.17;9.80;;;;;;;5.31;82.96;102522.25;4976673;28;20117;-83
2023/04/18 06:06:11;;;;;;;16.48;9.85;;;;;;;5.35;82.27;102527.56;4989143;28;20026;-83
2023/04/18 06:08:38;;;;;;;14.77;9.40;;;;;;;5.44;82.40;102529.16;4992860;28;20052;-83
2023/04/18 06:11:03;;;;;;;15.55;9.05;;;;;;;5.49;82.90;102524.53;4991942;28;20034;-83
2023/04/18 06:13:29;;;;;;;15.80;9.63;;;;;;;5.56;82.58;102523.47;4999679;28;20352;-83
2023/04/18 06:15:55;;;;;;;13.95;10.25;;;;;;;5.61;82.13;102521.53;4994492;28;20030;-83
2023/04/18 06:18:20;;;;;;;15.52;9.30;;;;;;;5.67;82.89;102525.00;4981475;28;20050;-82
2023/04/18 06:20:45;;;;;;;16.67;11.10;;;;;;;5.70;82.92;102517.72;4990656;28;20037;-84
2023/04/18 06:23:11;;;;;;;16.02;9.68;;;;;;;5.82;82.89;102519.22;4989183;28;20419;-83
2023/04/18 06:25:36;;;;;;;18.35;10.30;;;;;;;5.95;81.42;102533.31;4972109;28;20026;-83
2023/04/18 06:28:02;;;;;;;14.32;9.05;;;;;;;6.03;81.46;102528.63;4988640;28;20364;-83
2023/04/18 06:30:27;;;;;;;14.98;8.75;;;;;;;6.19;80.71;102534.50;4970851;28;20057;-84
2023/04/18 06:32:52;;;;;;;19.40;10.05;;;;;;;6.26;80.83;102538.81;5004915;28;20474;-83
2023/04/18 06:35:18;;;;;;;15.75;9.00;;;;;;;6.35;81.09;102531.34;4972008;28;20038;-84
2023/04/18 06:37:44;;;;;;;16.20;10.13;;;;;;;6.40;79.47;102520.41;4984103;28;20061;-83
2023/04/18 06:40:12;;;;;;;16.23;9.75;;;;;;;6.42;81.74;102528.44;4971913;28;20073;-84
2023/04/18 06:42:38;;;;;;;16.50;9.90;;;;;;;6.62;81.02;102537.78;4988738;28;20482;-83
2023/04/18 06:45:05;;;;;;;15.20;9.73;;;;;;;6.77;81.30;102535.56;4979296;28;20019;-84
2023/04/18 06:47:30;;;;;;;16.27;9.70;;;;;;;6.88;79.11;102533.41;4999299;28;20038;-83
2023/04/18 06:49:56;;;;;;;16.52;9.13;;;;;;;6.94;79.18;102541.34;4990405;28;20406;-83
2023/04/18 06:52:21;;;;;;;14.25;9.52;;;;;;;7.02;79.94;102541.13;4972255;28;20479;-83
2023/04/18 06:54:47;;;;;;;13.88;8.52;;;;;;;7.10;78.21;102549.91;4988199;28;20042;-83
2023/04/18 06:57:13;;;;;;;17.63;9.55;;;;;;;7.04;79.53;102533.81;4989501;28;20141;-83
2023/04/18 06:59:40;;;;;;;13.45;8.80;;;;;;;7.07;79.28;102537.31;4986592;28;20045;-84
2023/04/18 07:02:06;;;;;;;19.85;9.77;;;;;;;7.10;78.36;102550.78;4986805;28;20494;-83
2023/04/18 07:04:31;;;;;;;13.93;8.27;;;;;;;7.16;78.75;102545.16;4989693;28;20034;-83
2023/04/18 07:06:57;;;;;;;11.70;8.25;;;;;;;7.23;79.58;102543.19;4972211;28;20470;-84
2023/04/18 07:09:22;;;;;;;14.35;8.95;;;;;;;7.32;78.96;102551.00;4987332;28;20088;-83
2023/04/18 07:11:49;;;;;;;14.60;9.15;;;;;;;7.44;78.74;102541.59;4970656;28;20395;-83
2023/04/18 07:14:15;;;;;;;16.67;9.35;;;;;;;7.65;78.66;102548.16;4968824;28;20498;-83
2023/04/18 07:16:40;;;;;;;17.30;8.57;;;;;;;7.81;77.52;102541.25;4987763;28;20038;-84
2023/04/18 07:19:06;;;;;;;12.93;8.77;;;;;;;8.03;76.96;102554.09;4988333;28;20029;-84
2023/04/18 07:21:31;;;;;;;12.70;8.48;;;;;;;8.03;75.42;102565.81;4971069;28;20509;-82
2023/04/18 07:23:57;;;;;;;16.13;8.65;;;;;;;7.99;76.76;102556.03;4987466;28;20300;-83
2023/04/18 07:26:22;;;;;;;13.65;9.40;;;;;;;7.90;76.41;102553.63;4970817;28;20121;-83
2023/04/18 07:28:48;;;;;;;13.10;8.57;;;;;;;7.87;75.92;102561.84;4978581;28;20042;-84
2023/04/18 07:31:15;;;;;;;10.68;8.18;;;;;;;7.80;77.04;102557.59;4985955;28;20045;-83
2023/04/18 07:33:42;;;;;;;11.63;8.35;;;;;;;7.82;77.47;102569.25;4987871;28;20042;-83
2023/04/18 07:36:08;;;;;;;12.70;8.38;;;;;;;7.81;77.44;102570.19;4971248;28;20061;-83
2023/04/18 07:38:34;;;;;;;12.90;8.38;;;;;;;7.82;77.39;102567.41;4987229;28;20037;-83
2023/04/18 07:41:01;;;;;;;13.02;8.35;;;;;;;7.88;77.07;102571.75;4971329;28;20034;-84
2023/04/18 07:43:26;;;;;;;12.77;8.55;;;;;;;7.97;78.18;102567.84;4988377;28;20446;-83
2023/04/18 07:45:52;;;;;;;16.33;9.05;;;;;;;8.03;78.56;102565.81;4987693;28;20037;-84
2023/04/18 07:48:20;;;;;;;14.32;8.10;;;;;;;8.02;76.46;102569.47;4988107;28;20038;-84
2023/04/18 07:50:46;;;;;;;11.93;8.18;;;;;;;7.97;77.91;102563.31;4987574;28;20347;-83
2023/04/18 07:53:11;;;;;;;14.40;8.68;;;;;;;7.94;78.77;102563.44;4989780;28;20030;-84
2023/04/18 07:55:38;;;;;;;15.13;9.05;;;;;;;7.95;78.62;102567.03;4991020;28;20034;-84
2023/04/18 07:58:03;;;;;;;16.42;9.05;;;;;;;7.97;77.66;102562.41;5005307;28;20049;-84
2023/04/18 08:00:31;;;;;;;13.77;8.57;;;;;;;8.15;77.87;102562.66;4989653;28;20350;-84
2023/04/18 08:02:57;;;;;;;14.68;8.50;;;;;;;8.29;77.53;102567.63;4986128;28;20054;-84
2023/04/18 08:05:23;;;;;;;14.13;8.25;;;;;;;8.53;78.03;102571.31;4987611;28;20129;-83
2023/04/18 08:07:49;;;;;;;14.45;8.80;;;;;;;8.71;78.16;102561.59;4971848;28;20142;-83
2023/04/18 08:10:14;;;;;;;14.13;8.38;;;;;;;8.82;75.44;102563.94;4971820;28;20088;-84
2023/04/18 08:12:40;;;;;;;13.02;8.57;;;;;;;8.87;76.37;102570.97;4987119;28;20038;-84
2023/04/18 08:15:06;;;;;;;14.82;9.07;;;;;;;8.88;76.38;102563.72;4969813;28;20046;-84
2023/04/18 08:17:31;;;;;;;12.27;8.40;;;;;;;8.95;75.35;102576.09;4969689;28;20042;-84
2023/04/18 08:19:59;;;;;;;12.65;9.23;;;;;;;9.10;77.42;102572.81;4971552;28;20057;-84
2023/04/18 08:22:25;;;;;;;14.57;9.32;;;;;;;9.16;76.59;102574.41;4971216;28;20037;-84
2023/04/18 08:24:50;;;;;;;14.13;8.15;;;;;;;9.17;74.81;102579.75;4989011;28;20030;-84
2023/04/18 08:27:15;;;;;;;12.70;8.45;;;;;;;9.01;75.60;102570.44;4990945;28;20090;-82
2023/04/18 08:29:41;;;;;;;11.88;8.10;;;;;;;8.91;75.85;102579.88;4989935;28;20042;-84
2023/04/18 08:32:06;;;;;;;12.57;8.25;;;;;;;8.84;76.42;102571.06;5000029;28;20104;-84
2023/04/18 08:34:35;;;;;;;12.77;8.20;;;;;;;8.78;75.17;102575.84;5010492;28;20408;-83
2023/04/18 08:37:00;;;;;;;14.45;8.10;;;;;;;8.73;76.28;102576.03;5010857;28;20041;-83
2023/04/18 08:39:26;;;;;;;9.93;7.97;;;;;;;8.74;77.04;102574.19;5011797;28;20069;-84
2023/04/18 08:41:58;;;;;;;15.40;9.23;;;;;;;8.71;76.54;102572.47;4992335;28;20594;-84
2023/04/18 08:44:26;;;;;;;14.80;8.70;;;;;;;8.77;76.84;102577.69;4996482;28;20121;-84
2023/04/18 08:46:52;;;;;;;12.48;8.57;;;;;;;8.86;77.56;102562.84;4981554;28;20038;-84
2023/04/18 08:49:20;;;;;;;13.68;8.85;;;;;;;9.01;77.20;102564.13;4993675;28;20559;-84
2023/04/18 08:51:46;;;;;;;12.30;8.23;;;;;;;9.19;77.58;102572.44;5000736;28;20038;-83
2023/04/18 08:54:12;;;;;;;16.88;9.35;;;;;;;9.33;75.99;102563.75;4994405;28;20105;-82
2023/04/18 08:56:39;;;;;;;12.10;8.30;;;;;;;9.49;75.92;102557.72;5010775;28;20049;-84
2023/04/18 08:59:05;;;;;;;13.65;9.02;;;;;;;9.79;75.24;102575.50;5000089;28;20037;-83
2023/04/18 09:02:00;;;;;;;13.63;9.25;;;;;;;10.14;74.50;102568.53;5001083;28;20041;-84
2023/04/18 09:04:44;;;;;;;14.55;8.45;;;;;;;10.32;73.64;102561.47;4973963;28;20034;-83
2023/04/18 09:07:15;;;;;;;12.93;8.77;;;;;;;10.35;71.69;102558.63;5001500;28;20067;-84
2023/04/18 09:09:43;;;;;;;12.60;8.45;;;;;;;10.47;73.02;102555.31;5010691;28;20049;-84
2023/04/18 09:12:10;;;;;;;11.85;8.10;;;;;;;10.72;70.20;102546.97;5010396;28;20033;-82
2023/04/18 09:14:36;;;;;;;12.77;8.65;;;;;;;11.12;70.15;102544.19;4998609;28;20037;-82
2023/04/18 09:17:02;;;;;;;14.13;8.35;;;;;;;11.41;66.65;102551.84;4991277;28;20049;-84
2023/04/18 09:19:29;;;;;;;14.45;8.23;;;;;;;11.32;67.19;102548.69;5009632;28;20034;-83
2023/04/18 09:22:00;;;;;;;9.95;8.05;;;;;;;11.12;67.46;102555.97;5010972;28;20049;-84
2023/04/18 09:24:27;;;;;;;13.60;8.23;;;;;;;10.91;67.42;102556.97;4997451;28;20042;-83
2023/04/18 09:26:54;;;;;;;9.98;7.53;;;;;;;10.73;67.88;102553.28;4989612;28;20380;-84
2023/04/18 09:29:21;;;;;;;13.98;8.13;;;;;;;10.67;69.08;102557.16;4990033;28;20034;-84
2023/04/18 09:32:00;;;;;;;10.77;7.32;;;;;;;10.89;71.18;102562.50;4991639;28;20398;-83
2023/04/18 09:34:27;;;;;;;11.85;7.32;;;;;;;11.00;67.72;102553.81;5009216;28;20350;-83
2023/04/18 09:37:07;;;;;;;9.98;6.55;;;;;;;11.02;67.20;102553.78;4992443;28;20022;-83
2023/04/18 09:39:33;;;;;;;9.15;6.22;;;;;;;10.86;65.55;102550.84;4973866;28;20053;-84
2023/04/18 09:41:59;;;;;;;11.95;6.88;;;;;;;10.64;66.31;102559.16;4973265;28;20030;-83
2023/04/18 09:44:25;;;;;;;15.85;7.75;;;;;;;10.48;68.01;102539.88;4979191;28;20580;-83
2023/04/18 09:46:50;;;;;;;11.32;7.60;;;;;;;10.50;66.91;102548.88;4972387;28;20037;-82
2023/04/18 09:49:16;;;;;;;8.95;6.30;;;;;;;10.46;67.04;102537.25;4989614;28;20073;-83
2023/04/18 09:51:45;;;;;;;10.57;7.05;;;;;;;10.48;66.80;102543.47;4972870;28;20049;-84
2023/04/18 09:54:15;;;;;;;13.07;7.38;;;;;;;10.60;67.18;102549.34;4972877;28;20030;-83
2023/04/18 09:56:44;;;;;;;10.38;6.95;;;;;;;10.54;65.94;102546.88;4991175;28;20108;-84
2023/04/18 09:59:11;;;;;;;8.68;6.25;;;;;;;10.53;66.69;102556.00;4988106;28;20117;-84
2023/04/18 10:01:36;;;;;;;10.25;7.22;;;;;;;10.47;67.74;102546.28;4995184;28;20136;-84
2023/04/18 10:04:05;;;;;;;9.82;7.15;;;;;;;10.44;67.90;102550.03;4992535;28;20531;-84
2023/04/18 10:06:38;;;;;;;9.07;6.85;;;;;;;10.50;69.25;102546.16;5007422;28;20029;-84
2023/04/18 10:09:04;;;;;;;8.98;5.97;;;;;;;10.51;68.52;102542.47;4991751;28;20026;-83
2023/04/18 10:11:31;;;;;;;12.40;6.97;;;;;;;10.46;67.58;102545.41;5006233;28;20044;-83
2023/04/18 10:14:01;;;;;;;11.00;6.38;;;;;;;10.38;68.65;102543.97;4974432;28;20099;-84
2023/04/18 10:16:28;;;;;;;11.48;7.05;;;;;;;10.44;68.93;102544.59;5000937;28;20050;-83
2023/04/18 10:18:53;;;;;;;9.27;6.32;;;;;;;10.40;67.73;102548.41;4973355;28;20030;-82
2023/04/18 10:21:20;;;;;;;8.27;5.55;;;;;;;10.33;66.05;102548.75;4988924;28;20344;-83
2023/04/18 10:23:47;;;;;;;9.65;6.75;;;;;;;10.34;68.12;102545.06;4972250;28;20038;-82
2023/04/18 10:26:13;;;;;;;8.75;5.72;;;;;;;10.35;69.05;102541.38;4988905;28;20034;-84
2023/04/18 10:28:56;;;;;;;7.32;5.47;;;;;;;10.61;67.72;102548.38;4987192;28;20026;-84
2023/04/18 10:31:27;;;;;;;6.55;4.22;;;;;;;10.66;65.59;102541.78;4970404;28;20426;-82
2023/04/18 10:33:59;;;;;;;9.82;4.55;;;;;;;10.71;64.93;102549.72;4969259;28;20117;-83
2023/04/18 10:36:26;;;;;;;5.15;3.83;;;;;;;10.66;64.87;102543.63;4984851;28;20510;-83
2023/04/18 10:38:59;;;;;;;5.32;4.07;;;;;;;10.79;64.78;102555.72;4969675;28;20097;-83
2023/04/18 10:41:27;;;;;;;6.43;4.03;;;;;;;10.83;64.88;102551.91;4979406;28;20138;-83
2023/04/18 10:44:22;;;;;;;10.85;4.38;;;;;;;10.90;64.14;102553.38;4989322;28;20041;-84
2023/04/18 10:46:50;;;;;;;6.55;4.97;;;;;;;10.92;64.14;102558.78;4983395;28;20050;-84
2023/04/18 10:49:27;;;;;;;6.78;5.25;;;;;;;10.78;64.61;102547.63;4988665;28;20490;-83
2023/04/18 10:51:57;;;;;;;7.40;5.30;;;;;;;10.74;64.71;102538.72;4972702;28;20062;-84
2023/04/18 10:54:40;;;;;;;9.40;6.22;;;;;;;10.85;65.36;102538.22;4988453;28;20056;-84
2023/04/18 10:57:07;;;;;;;8.38;5.50;;;;;;;11.02;68.25;102543.75;4987853;28;20054;-84
2023/04/18 10:59:37;;;;;;;9.18;6.25;;;;;;;11.11;66.96;102528.81;4986866;28;20109;-83
2023/04/18 11:02:30;;;;;;;8.98;5.63;;;;;;;11.28;66.41;102547.94;4971788;28;20112;-84
2023/04/18 11:04:58;;;;;;;8.52;5.63;;;;;;;11.23;66.46;102550.88;4987142;28;20134;-83
2023/04/18 11:07:36;;;;;;;8.70;5.45;;;;;;;11.11;65.41;102540.59;4972063;28;20030;-84
2023/04/18 11:10:03;;;;;;;7.90;6.13;;;;;;;10.94;66.64;102541.38;4972271;28;20042;-84
2023/04/18 11:12:34;;;;;;;8.27;6.13;;;;;;;10.91;66.21;102544.28;5001178;28;20026;-83
2023/04/18 11:15:01;;;;;;;10.27;6.65;;;;;;;10.80;67.03;102546.59;4993080;28;20039;-84
2023/04/18 11:17:34;;;;;;;10.48;6.72;;;;;;;10.90;68.31;102534.31;4987009;28;20030;-84
2023/04/18 11:20:08;;;;;;;9.88;6.75;;;;;;;11.04;68.42;102538.22;4989696;28;20509;-84
2023/04/18 11:22:52;;;;;;;9.98;7.32;;;;;;;11.07;66.36;102538.97;4987949;28;20113;-83